createdAt,value
2023-01-05T00:01:50.230Z,99215.20
2023-01-05T00:04:37.253Z,99206.80
2023-01-05T00:07:23.849Z,99212.95
2023-01-05T00:10:31.159Z,99204.02
2023-01-05T00:13:36.575Z,99195.48
2023-01-05T00:16:41.797Z,99197.98
2023-01-05T00:19:47.554Z,99182.13
2023-01-05T00:22:46.461Z,99179.35
2023-01-05T00:25:37.915Z,99177.13
2023-01-05T00:28:25.533Z,99168.93
2023-01-05T00:31:14.405Z,99173.19
2023-01-05T00:34:00.803Z,99167.80
2023-01-05T00:36:48.038Z,99162.67
2023-01-05T00:39:34.794Z,99159.38
2023-01-05T00:42:22.260Z,99160.23
2023-01-05T00:45:11.904Z,99159.38
2023-01-05T00:47:58.541Z,99152.23
2023-01-05T00:50:49.458Z,99153.45
2023-01-05T00:53:36.385Z,99147.52
2023-01-05T00:56:23.437Z,99146.25
2023-01-05T00:59:10.388Z,99131.67
2023-01-05T01:01:57.212Z,99136.60
2023-01-05T01:04:44.951Z,99134.31
2023-01-05T01:07:31.765Z,99132.45
2023-01-05T01:10:18.690Z,99127.84
2023-01-05T01:13:05.356Z,99124.13
2023-01-05T01:15:52.222Z,99126.58
2023-01-05T01:18:40.924Z,99119.41
2023-01-05T01:21:28.343Z,99117.09
2023-01-05T01:24:23.929Z,99117.10
2023-01-05T01:27:10.777Z,99112.30
2023-01-05T01:29:57.655Z,99109.30
2023-01-05T01:32:44.267Z,99101.15
2023-01-05T01:35:30.947Z,99096.70
2023-01-05T01:38:19.606Z,99097.58
2023-01-05T01:41:06.413Z,99095.26
2023-01-05T01:43:56.728Z,99097.02
2023-01-05T01:46:43.121Z,99090.67
2023-01-05T01:49:29.843Z,99085.48
2023-01-05T01:52:17.046Z,99089.42
2023-01-05T01:55:05.836Z,99078.91
2023-01-05T01:57:53.107Z,99067.80
2023-01-05T02:00:43.402Z,99061.92
2023-01-05T02:03:31.433Z,99051.95
2023-01-05T02:06:38.318Z,99054.15
2023-01-05T02:09:25.106Z,99054.45
2023-01-05T02:12:30.450Z,99050.08
2023-01-05T02:15:35.435Z,99046.69
2023-01-05T02:18:27.926Z,99041.77
2023-01-05T02:21:48.875Z,99033.98
2023-01-05T02:24:51.689Z,99028.15
2023-01-05T02:27:41.301Z,99026.80
2023-01-05T02:30:46.990Z,99027.02
2023-01-05T02:33:55.235Z,99025.10
2023-01-05T02:36:54.994Z,99022.41
2023-01-05T02:39:54.955Z,99024.20
2023-01-05T02:42:43.957Z,99013.57
2023-01-05T02:45:30.800Z,99013.95
2023-01-05T02:48:17.447Z,99015.63
2023-01-05T02:51:08.898Z,99009.21
2023-01-05T02:54:06.919Z,98999.65
2023-01-05T02:57:04.240Z,98999.70
2023-01-05T02:59:54.596Z,98993.79
2023-01-05T03:02:43.254Z,98990.45
2023-01-05T03:05:35.977Z,98989.96
2023-01-05T03:08:32.069Z,98985.45
2023-01-05T03:11:39.021Z,98981.68
2023-01-05T03:14:38.555Z,98976.91
2023-01-05T03:17:50.154Z,98965.52
2023-01-05T03:20:42.162Z,98967.22
2023-01-05T03:23:47.666Z,98966.72
2023-01-05T03:26:52.999Z,98973.08
2023-01-05T03:29:58.133Z,98971.80
2023-01-05T03:33:11.084Z,98972.27
2023-01-05T03:35:59.406Z,98964.94
2023-01-05T03:38:48.408Z,98956.75
2023-01-05T03:41:38.324Z,98954.48
2023-01-05T03:44:25.104Z,98946.27
2023-01-05T03:47:12.720Z,98946.14
2023-01-05T03:50:01.442Z,98948.52
2023-01-05T03:52:48.298Z,98952.75
2023-01-05T03:55:34.979Z,98947.42
2023-01-05T03:58:21.575Z,98940.48
2023-01-05T04:01:08.820Z,98936.54
2023-01-05T04:03:56.104Z,98931.52
2023-01-05T04:06:44.568Z,98932.65
2023-01-05T04:09:31.357Z,98937.70
2023-01-05T04:12:18.125Z,98928.56
2023-01-05T04:15:06.505Z,98927.39
2023-01-05T04:17:53.130Z,98923.81
2023-01-05T04:20:40.040Z,98921.13
2023-01-05T04:23:26.814Z,98926.66
2023-01-05T04:26:13.912Z,98926.98
2023-01-05T04:29:02.890Z,98927.77
2023-01-05T04:31:49.661Z,98933.30
2023-01-05T04:34:38.322Z,98935.55
2023-01-05T04:37:25.991Z,98934.11
2023-01-05T04:40:15.222Z,98935.41
2023-01-05T04:43:03.180Z,98932.39
2023-01-05T04:45:54.750Z,98926.73
2023-01-05T04:48:41.260Z,98927.46
2023-01-05T04:51:28.931Z,98926.84
2023-01-05T04:54:41.132Z,98923.28
2023-01-05T04:57:29.185Z,98915.30
2023-01-05T05:00:17.048Z,98922.18
2023-01-05T05:03:05.065Z,98920.33
2023-01-05T05:05:51.871Z,98919.51
2023-01-05T05:08:38.387Z,98918.33
2023-01-05T05:11:25.437Z,98923.98
2023-01-05T05:14:12.222Z,98917.61
2023-01-05T05:16:58.701Z,98922.60
2023-01-05T05:19:45.525Z,98924.14
2023-01-05T05:22:32.160Z,98925.28
2023-01-05T05:25:18.692Z,98925.23
2023-01-05T05:28:05.785Z,98917.98
2023-01-05T05:33:38.380Z,98925.15
2023-01-05T05:36:25.280Z,98926.98
2023-01-05T05:39:13.118Z,98929.19
2023-01-05T05:41:59.808Z,98935.84
2023-01-05T05:44:46.661Z,98938.54
2023-01-05T05:47:33.661Z,98936.40
2023-01-05T05:50:20.733Z,98938.22
2023-01-05T05:53:07.779Z,98941.74
2023-01-05T05:55:54.595Z,98935.53
2023-01-05T05:58:41.427Z,98937.80
2023-01-05T06:01:28.322Z,98939.38
2023-01-05T06:04:15.106Z,98938.71
2023-01-05T06:07:03.957Z,98939.28
2023-01-05T06:09:50.583Z,98937.75
2023-01-05T06:12:37.073Z,98940.14
2023-01-05T06:15:24.163Z,98945.55
2023-01-05T06:18:11.745Z,98954.05
2023-01-05T06:21:01.716Z,98953.58
2023-01-05T06:23:48.435Z,98949.34
2023-01-05T06:26:35.078Z,98951.15
2023-01-05T06:29:21.516Z,98955.45
2023-01-05T06:33:43.449Z,98955.96
2023-01-05T06:36:31.046Z,98959.90
2023-01-05T06:39:17.484Z,98961.08
2023-01-05T06:42:04.202Z,98957.10
2023-01-05T06:44:50.807Z,98960.98
2023-01-05T06:47:38.423Z,98964.84
2023-01-05T06:50:25.086Z,98970.42
2023-01-05T06:53:11.977Z,98971.73
2023-01-05T06:55:58.782Z,98971.77
2023-01-05T06:58:45.703Z,98975.78
2023-01-05T07:01:32.389Z,98977.44
2023-01-05T07:04:18.821Z,98976.50
2023-01-05T07:07:05.199Z,98982.48
2023-01-05T07:09:52.278Z,98979.05
2023-01-05T07:12:39.000Z,98984.30
2023-01-05T07:15:26.012Z,98985.98
2023-01-05T07:18:13.083Z,98985.31
2023-01-05T07:21:00.837Z,98991.67
2023-01-05T07:23:48.393Z,98985.92
2023-01-05T07:26:36.026Z,98987.35
2023-01-05T07:29:22.801Z,98986.14
2023-01-05T07:32:09.588Z,98990.88
2023-01-05T07:34:56.365Z,98981.75
2023-01-05T07:37:44.634Z,98987.76
2023-01-05T07:40:31.206Z,98981.89
2023-01-05T07:43:18.208Z,98980.27
2023-01-05T07:46:06.438Z,98978.59
2023-01-05T07:48:53.231Z,98975.85
2023-01-05T07:52:17.132Z,98973.77
2023-01-05T07:55:02.980Z,98978.23
2023-01-05T07:57:51.039Z,98981.08
2023-01-05T08:00:36.514Z,98975.67
2023-01-05T08:03:22.692Z,98979.98
2023-01-05T08:06:17.730Z,98976.97
2023-01-05T08:09:23.713Z,98983.79
2023-01-05T08:12:09.382Z,98982.65
2023-01-05T08:14:54.682Z,98987.26
2023-01-05T08:17:40.484Z,98989.77
2023-01-05T08:20:29.748Z,98990.59
2023-01-05T08:23:25.888Z,98993.06
2023-01-05T08:26:15.391Z,98995.48
2023-01-05T08:29:00.826Z,98993.83
2023-01-05T08:31:46.507Z,98998.48
2023-01-05T08:34:35.637Z,98999.95
2023-01-05T08:37:23.861Z,99000.80
2023-01-05T08:40:14.369Z,99005.91
2023-01-05T08:42:59.847Z,99009.01
2023-01-05T08:45:51.008Z,99014.46
2023-01-05T08:48:36.334Z,99018.12
2023-01-05T08:51:23.230Z,99020.08
2023-01-05T08:54:11.004Z,99023.57
2023-01-05T08:56:56.576Z,99025.09
2023-01-05T08:59:42.201Z,99029.59
2023-01-05T09:02:55.079Z,99032.69
2023-01-05T09:06:58.148Z,99036.34
2023-01-05T09:09:46.032Z,99046.54
2023-01-05T09:12:38.713Z,99048.02
2023-01-05T09:15:40.088Z,99050.27
2023-01-05T09:18:40.672Z,99059.59
2023-01-05T09:21:28.721Z,99063.96
2023-01-05T09:24:16.073Z,99062.65
2023-01-05T09:27:05.580Z,99064.33
2023-01-05T09:29:54.826Z,99065.27
2023-01-05T09:32:41.691Z,99067.48
2023-01-05T09:35:28.640Z,99069.54
2023-01-05T09:38:20.825Z,99074.79
2023-01-05T09:41:52.251Z,99083.14
2023-01-05T09:44:54.056Z,99079.15
2023-01-05T09:47:48.238Z,99089.31
2023-01-05T09:50:37.204Z,99079.98
2023-01-05T09:53:30.413Z,99082.75
2023-01-05T09:57:08.504Z,99086.64
2023-01-05T09:59:52.050Z,99080.91
2023-01-05T10:03:10.966Z,99084.86
2023-01-05T10:06:00.261Z,99079.86
2023-01-05T10:08:50.876Z,99086.38
2023-01-05T10:12:06.782Z,99087.48
2023-01-05T10:15:27.721Z,99094.05
2023-01-05T10:18:18.395Z,99087.77
2023-01-05T10:21:23.929Z,99088.34
2023-01-05T10:24:28.822Z,99084.27
2023-01-05T10:27:56.519Z,99090.22
2023-01-05T10:31:07.534Z,99093.40
2023-01-05T10:41:41.485Z,99098.45
2023-01-05T10:46:32.610Z,99096.88
2023-01-05T11:01:49.050Z,99094.12
2023-01-05T11:04:37.762Z,99095.59
2023-01-05T11:07:22.899Z,99091.99
2023-01-05T11:10:22.114Z,99094.42
2023-01-05T11:13:17.732Z,99098.19
2023-01-05T11:16:14.162Z,99093.55
2023-01-05T11:19:07.157Z,99093.63
2023-01-05T11:21:56.710Z,99090.77
2023-01-05T11:24:48.381Z,99086.48
2023-01-05T11:27:33.894Z,99090.98
2023-01-05T11:33:28.769Z,99086.52
2023-01-05T11:36:17.320Z,99087.84
2023-01-05T11:39:03.959Z,99091.21
2023-01-05T11:41:50.549Z,99090.73
2023-01-05T11:44:39.474Z,99092.88
2023-01-05T11:47:41.448Z,99090.08
2023-01-05T11:50:47.084Z,99093.17
2023-01-05T11:53:33.631Z,99092.36
2023-01-05T11:56:24.750Z,99090.71
2023-01-05T11:59:34.147Z,99096.04
2023-01-05T12:02:34.150Z,99097.06
2023-01-05T12:05:28.097Z,99096.48
2023-01-05T12:08:47.088Z,99099.83
2023-01-05T12:11:50.853Z,99098.70
2023-01-05T12:14:53.381Z,99098.43
2023-01-05T12:17:59.372Z,99100.89
2023-01-05T12:21:07.993Z,99100.40
2023-01-05T12:23:57.367Z,99107.52
2023-01-05T12:26:57.624Z,99109.46
2023-01-05T12:36:44.406Z,99106.20
2023-01-05T12:39:40.416Z,99101.20
2023-01-05T12:42:50.479Z,99100.57
2023-01-05T12:45:59.781Z,99102.91
2023-01-05T12:48:53.584Z,99094.55
2023-01-05T12:51:51.427Z,99093.65
2023-01-05T12:55:06.904Z,99092.55
2023-01-05T12:58:35.164Z,99097.23
2023-01-05T13:01:29.975Z,99097.27
2023-01-05T13:09:19.600Z,99101.66
2023-01-05T13:12:13.071Z,99106.16
2023-01-05T13:15:59.103Z,99110.44
2023-01-05T13:18:53.604Z,99111.16
2023-01-05T13:21:44.780Z,99112.06
2023-01-05T13:24:39.742Z,99120.25
2023-01-05T13:27:31.950Z,99119.92
2023-01-05T13:44:38.502Z,99133.41
2023-01-05T13:47:53.857Z,99134.74
2023-01-05T13:50:52.394Z,99138.16
2023-01-05T13:53:42.047Z,99140.48
2023-01-05T13:56:30.957Z,99144.14
2023-01-05T13:59:35.513Z,99145.82
2023-01-05T14:02:38.751Z,99144.75
2023-01-05T14:05:31.023Z,99144.54
2023-01-05T14:08:25.893Z,99151.21
2023-01-05T14:11:20.199Z,99151.60
2023-01-05T14:14:27.378Z,99154.74
2023-01-05T14:17:52.227Z,99154.48
2023-01-05T14:20:46.655Z,99155.08
2023-01-05T14:23:33.605Z,99157.54
2023-01-05T14:27:06.378Z,99155.12
2023-01-05T14:29:53.321Z,99148.19
2023-01-05T14:32:42.832Z,99152.57
2023-01-05T14:35:38.428Z,99157.05
2023-01-05T14:38:26.298Z,99156.36
2023-01-05T14:41:26.646Z,99160.42
2023-01-05T14:44:22.056Z,99168.39
2023-01-05T14:47:10.268Z,99169.25
2023-01-05T14:50:03.777Z,99169.67
2023-01-05T14:52:59.403Z,99172.60
2023-01-05T14:55:57.137Z,99174.86
2023-01-05T14:58:44.069Z,99171.32
2023-01-05T15:04:36.138Z,99171.92
2023-01-05T15:07:37.597Z,99174.73
2023-01-05T15:10:43.483Z,99176.27
2023-01-05T15:14:13.796Z,99170.63
2023-01-05T15:17:09.077Z,99171.30
2023-01-05T15:26:03.537Z,99168.21
2023-01-05T15:29:12.464Z,99166.88
2023-01-05T15:32:07.165Z,99169.52
2023-01-05T15:35:16.767Z,99165.99
2023-01-05T15:38:27.691Z,99166.13
2023-01-05T15:41:20.019Z,99166.70
2023-01-05T15:44:06.672Z,99170.88
2023-01-05T15:46:54.062Z,99170.52
2023-01-05T15:49:41.344Z,99160.09
2023-01-05T15:52:39.427Z,99180.72
2023-01-05T15:55:29.977Z,99180.05
2023-01-05T15:58:16.487Z,99184.73
2023-01-05T16:01:14.878Z,99186.14
2023-01-05T16:04:14.184Z,99189.04
2023-01-05T16:07:03.520Z,99190.35
2023-01-05T16:09:50.164Z,99194.67
2023-01-05T16:12:37.399Z,99188.41
2023-01-05T16:15:25.799Z,99193.77
2023-01-05T16:18:21.968Z,99195.38
2023-01-05T16:21:19.181Z,99201.52
2023-01-05T16:24:42.323Z,99201.14
2023-01-05T16:27:30.075Z,99205.83
2023-01-05T16:30:38.113Z,99210.05
2023-01-05T16:33:35.291Z,99209.44
2023-01-05T16:36:22.891Z,99214.48
2023-01-05T16:39:24.170Z,99219.46
2023-01-05T16:42:41.310Z,99229.03
2023-01-05T16:45:32.723Z,99234.52
2023-01-05T16:48:41.005Z,99247.61
2023-01-05T16:51:35.966Z,99262.86
2023-01-05T16:54:28.259Z,99276.91
2023-01-05T16:57:34.716Z,99274.67
2023-01-05T17:00:30.317Z,99285.67
2023-01-05T17:03:34.963Z,99293.46
2023-01-05T17:06:29.013Z,99295.54
2023-01-05T17:09:24.735Z,99307.30
2023-01-05T17:12:13.238Z,99310.57
2023-01-05T17:15:02.813Z,99321.21
2023-01-05T17:17:50.184Z,99327.08
2023-01-05T17:20:41.799Z,99330.57
2023-01-05T17:23:36.371Z,99332.35
2023-01-05T17:26:42.716Z,99342.64
2023-01-05T17:29:32.444Z,99350.05
2023-01-05T17:32:18.971Z,99362.44
2023-01-05T17:37:58.270Z,99370.63
2023-01-05T17:40:48.296Z,99375.58
2023-01-05T17:43:35.123Z,99386.47
2023-01-05T17:46:33.306Z,99386.77
2023-01-05T17:49:21.083Z,99398.10
2023-01-05T17:52:08.697Z,99401.09
2023-01-05T17:54:57.759Z,99406.89
2023-01-05T17:57:44.065Z,99413.61
2023-01-05T18:00:35.759Z,99418.00
2023-01-05T18:03:22.797Z,99419.41
2023-01-05T18:06:10.069Z,99425.90
2023-01-05T18:08:57.195Z,99438.11
2023-01-05T18:11:45.134Z,99439.23
2023-01-05T18:14:31.862Z,99444.05
2023-01-05T18:17:21.388Z,99447.96
2023-01-05T18:20:10.675Z,99457.77
2023-01-05T18:36:12.725Z,99498.19
2023-01-05T18:38:58.234Z,99503.99
2023-01-05T18:41:43.450Z,99510.33
2023-01-05T18:44:28.676Z,99524.30
2023-01-05T18:47:14.021Z,99519.55
2023-01-05T18:50:00.359Z,99518.85
2023-01-05T18:52:47.683Z,99525.11
2023-01-05T18:55:32.794Z,99542.06
2023-01-05T18:58:19.470Z,99549.69
2023-01-05T19:01:23.692Z,99555.05
2023-01-05T19:04:14.535Z,99561.09
2023-01-05T19:06:59.707Z,99570.73
2023-01-05T19:09:45.354Z,99576.37
2023-01-05T19:12:31.007Z,99586.31
2023-01-05T19:15:18.025Z,99585.91
2023-01-05T19:18:03.666Z,99592.05
2023-01-05T19:20:56.205Z,99596.31
2023-01-05T19:23:41.826Z,99605.42
2023-01-05T19:26:31.890Z,99607.48
2023-01-05T19:29:18.745Z,99612.54
2023-01-05T19:32:04.404Z,99615.88
2023-01-05T19:34:49.576Z,99624.33
2023-01-05T19:37:37.811Z,99628.80
2023-01-05T19:40:23.867Z,99630.38
2023-01-05T19:43:09.386Z,99639.11
2023-01-05T19:45:59.792Z,99645.93
2023-01-05T19:48:45.987Z,99652.79
2023-01-05T19:51:33.565Z,99664.30
2023-01-05T19:54:21.786Z,99677.59
2023-01-05T19:57:07.135Z,99683.66
2023-01-05T19:59:52.707Z,99692.80
2023-01-05T20:02:38.741Z,99702.30
2023-01-05T20:05:23.919Z,99716.16
2023-01-05T20:08:09.425Z,99721.05
2023-01-05T20:10:54.759Z,99728.19
2023-01-05T20:13:41.479Z,99732.64
2023-01-05T20:16:26.666Z,99745.18
2023-01-05T20:19:11.977Z,99755.53
2023-01-05T20:21:59.627Z,99753.75
2023-01-05T20:24:45.266Z,99756.00
2023-01-05T20:27:30.198Z,99770.70
2023-01-05T20:30:15.831Z,99777.48
2023-01-05T20:33:01.375Z,99786.85
2023-01-05T20:35:46.606Z,99795.30
2023-01-05T20:38:32.240Z,99803.88
2023-01-05T20:41:23.713Z,99814.21
2023-01-05T20:44:09.575Z,99824.01
2023-01-05T20:46:54.727Z,99831.08
2023-01-05T20:49:39.959Z,99842.01
2023-01-05T20:52:25.587Z,99848.68
2023-01-05T20:55:11.107Z,99859.06
2023-01-05T20:57:56.138Z,99865.00
2023-01-05T21:01:10.027Z,99881.88
2023-01-05T21:03:46.414Z,99888.31
2023-01-05T21:06:31.860Z,99895.60
2023-01-05T21:09:18.214Z,99908.43
2023-01-05T21:12:03.269Z,99919.95
2023-01-05T21:14:48.187Z,99921.48
2023-01-05T21:17:34.117Z,99931.98
2023-01-05T21:20:20.570Z,99938.45
2023-01-05T21:23:07.618Z,99945.81
2023-01-05T21:26:06.641Z,99956.27
2023-01-05T21:28:53.970Z,99968.14
2023-01-05T21:31:42.961Z,99973.91
2023-01-05T21:34:28.025Z,99983.04
2023-01-05T21:37:16.310Z,99990.91
2023-01-05T21:40:01.678Z,99999.52
2023-01-05T21:42:49.526Z,100006.92
2023-01-05T21:45:34.750Z,100013.26
2023-01-05T21:48:20.340Z,100023.05
2023-01-05T21:51:24.208Z,100032.53
2023-01-05T21:54:29.915Z,100036.08
2023-01-05T21:57:15.911Z,100049.73
2023-01-05T22:00:01.304Z,100060.00
2023-01-05T22:02:47.061Z,100070.89
2023-01-05T22:05:32.427Z,100076.40
2023-01-05T22:08:18.295Z,100083.90
2023-01-05T22:11:04.471Z,100090.65
2023-01-05T22:13:49.850Z,100109.46
2023-01-05T22:16:35.101Z,100117.31
2023-01-05T22:19:20.871Z,100127.11
2023-01-05T22:22:06.770Z,100138.45
2023-01-05T22:24:52.185Z,100146.00
2023-01-05T22:27:38.408Z,100152.02
2023-01-05T22:30:25.670Z,100158.80
2023-01-05T22:33:10.920Z,100160.44
2023-01-05T22:35:59.513Z,100163.73
2023-01-05T22:38:46.998Z,100176.36
2023-01-05T22:41:31.932Z,100180.52
2023-01-05T22:44:20.515Z,100184.36
2023-01-05T22:47:08.053Z,100188.70
2023-01-05T22:49:53.587Z,100196.70
2023-01-05T22:52:38.638Z,100200.45
2023-01-05T22:55:26.797Z,100206.41
2023-01-05T22:58:13.909Z,100212.94
2023-01-05T23:01:12.696Z,100220.98
2023-01-05T23:04:00.438Z,100229.96
2023-01-05T23:06:45.795Z,100237.14
2023-01-05T23:09:30.969Z,100242.66
2023-01-05T23:12:16.111Z,100247.24
2023-01-05T23:15:04.545Z,100254.84
2023-01-05T23:17:50.125Z,100263.63
2023-01-05T23:20:35.770Z,100275.52
2023-01-05T23:23:22.359Z,100288.99
2023-01-05T23:26:14.432Z,100302.59
2023-01-05T23:29:08.708Z,100306.17
2023-01-05T23:31:54.683Z,100311.02
2023-01-05T23:34:40.821Z,100312.43
2023-01-05T23:37:30.529Z,100321.65
2023-01-05T23:40:21.365Z,100321.77
2023-01-05T23:43:09.646Z,100325.73
2023-01-05T23:46:15.806Z,100331.04
2023-01-05T23:49:03.743Z,100338.55
2023-01-05T23:51:49.069Z,100351.31
2023-01-05T23:54:36.731Z,100352.94
2023-01-05T23:57:21.904Z,100361.55
